createdAt,value
2023-08-17T00:02:20.777Z,22.46
2023-08-17T00:05:09.932Z,22.42
2023-08-17T00:07:55.453Z,22.53
2023-08-17T00:10:40.984Z,22.33
2023-08-17T00:13:26.446Z,22.32
2023-08-17T00:16:11.774Z,22.26
2023-08-17T00:18:57.382Z,22.25
2023-08-17T00:21:43.222Z,22.46
2023-08-17T00:24:28.805Z,22.24
2023-08-17T00:27:14.324Z,22.52
2023-08-17T00:29:59.658Z,22.34
2023-08-17T00:32:45.302Z,22.11
2023-08-17T00:35:30.889Z,22.03
2023-08-17T00:38:16.486Z,22.23
2023-08-17T00:41:02.181Z,22.20
2023-08-17T00:43:47.685Z,22.35
2023-08-17T00:46:33.762Z,22.34
2023-08-17T00:49:19.237Z,22.51
2023-08-17T00:52:07.096Z,22.44
2023-08-17T00:54:52.858Z,22.63
2023-08-17T00:57:38.776Z,22.43
2023-08-17T01:00:27.788Z,22.60
2023-08-17T01:03:14.270Z,22.69
2023-08-17T01:06:00.190Z,22.74
2023-08-17T01:08:46.231Z,22.67
2023-08-17T01:11:40.119Z,22.30
2023-08-17T01:14:44.551Z,22.56
2023-08-17T01:17:39.546Z,22.43
2023-08-17T01:20:26.001Z,22.51
2023-08-17T01:23:11.237Z,22.55
2023-08-17T01:25:58.520Z,22.71
2023-08-17T01:28:46.714Z,22.60
2023-08-17T01:31:41.774Z,22.86
2023-08-17T01:34:30.646Z,22.76
2023-08-17T01:37:21.849Z,22.77
2023-08-17T01:40:10.426Z,22.63
2023-08-17T01:42:57.040Z,22.66
2023-08-17T01:48:28.032Z,22.70
2023-08-17T01:51:19.864Z,22.60
2023-08-17T01:54:05.430Z,22.81
2023-08-17T01:56:51.002Z,22.80
2023-08-17T01:59:36.535Z,22.79
2023-08-17T02:02:22.762Z,22.71
2023-08-17T02:05:09.312Z,22.69
2023-08-17T02:07:54.709Z,22.50
2023-08-17T02:10:40.164Z,22.75
2023-08-17T02:13:25.853Z,22.76
2023-08-17T02:16:12.261Z,22.57
2023-08-17T02:18:57.688Z,22.74
2023-08-17T02:21:43.239Z,22.64
2023-08-17T02:24:29.092Z,22.69
2023-08-17T02:27:14.846Z,22.72
2023-08-17T02:30:00.446Z,22.66
2023-08-17T02:32:45.953Z,22.60
2023-08-17T02:35:31.287Z,22.77
2023-08-17T02:38:16.785Z,22.96
2023-08-17T02:41:02.263Z,22.27
2023-08-17T02:43:47.643Z,22.55
2023-08-17T02:46:33.121Z,22.00
2023-08-17T02:49:19.694Z,21.51
2023-08-17T02:52:05.702Z,19.19
2023-08-17T02:54:51.405Z,18.87
2023-08-17T02:57:37.041Z,19.51
2023-08-17T03:00:22.860Z,21.92
2023-08-17T03:03:08.509Z,37.57
2023-08-17T03:05:54.254Z,41.69
2023-08-17T03:08:39.757Z,24.73
2023-08-17T03:11:25.130Z,30.40
2023-08-17T03:14:10.865Z,39.22
2023-08-17T03:16:56.431Z,34.02
